Whitehorse, South Dakota
Current Conditions -  °F | °C
As of 7:52 PM on Thursday 20 Nov 2014 (Local Time) from KMBG Reporting Station
Overcast Overcast  
Wind Chill:   Ceiling: 800
Heat Index: 23°   Visibility: 10mi
Dew Point: 19°   Wind: 17mph
Humidity: 85%   Direction: 170°S
Pressure: 29.97"   Gusts: NA
Location:  45.27°N, 100.89°W
Report Text: KMBG 210252Z AUTO 17015KT 10SM OVC008 M05/M07 A2997 RMK AO2 SLP178 T10501072 56015
Loading
Personal Weather Stations






























Interactive Weather Map New forecast layout! Learn more

10-Day Weather Forecast

Advertisements
Track Severe Weather on mobile